Time;durP1;ratioP1;P1;durP2;ratioP2;P2;SDS_P1;SDS_P2;PMS_P1;PMS_P2;Temp;Humidity;BMP_temperature;BMP_pressure;BME280_temperature;BME280_humidity;BME280_pressure;Samples;Min_cycle;Max_cycle;Signal;HPM_P1;HPM_P2
2022/06/16 00:01:28;;;;;;;10.10;6.60;;;;;;;20.53;100.00;101502.16;5097125;28;20058;-73
2022/06/16 00:04:14;;;;;;;10.70;6.80;;;;;;;20.42;100.00;101507.09;5096262;28;20034;-73
2022/06/16 00:07:00;;;;;;;10.40;7.45;;;;;;;20.72;100.00;101509.22;5096271;28;20148;-73
2022/06/16 00:09:45;;;;;;;13.25;7.70;;;;;;;20.57;100.00;101515.25;5096977;28;20024;-73
2022/06/16 00:12:31;;;;;;;11.35;7.57;;;;;;;20.69;100.00;101511.16;5096097;28;20384;-73
2022/06/16 00:15:21;;;;;;;9.02;7.43;;;;;;;20.78;100.00;101508.06;5096083;28;20111;-73
2022/06/16 00:18:07;;;;;;;10.98;8.25;;;;;;;20.69;100.00;101509.34;5095186;28;20019;-73
2022/06/16 00:20:52;;;;;;;10.77;7.95;;;;;;;20.63;100.00;101508.78;5096224;28;20128;-73
2022/06/16 00:23:39;;;;;;;10.45;8.18;;;;;;;20.69;100.00;101509.34;5096075;28;20118;-73
2022/06/16 00:26:27;;;;;;;14.05;7.78;;;;;;;20.68;100.00;101509.41;5096776;28;20119;-73
2022/06/16 00:29:13;;;;;;;9.50;6.75;;;;;;;20.78;100.00;101498.25;5096200;28;20043;-73
2022/06/16 00:31:59;;;;;;;10.75;7.13;;;;;;;20.85;100.00;101499.69;5095803;28;20115;-72
2022/06/16 00:34:45;;;;;;;11.82;7.78;;;;;;;20.85;100.00;101504.19;5096056;28;20024;-72
2022/06/16 00:37:30;;;;;;;9.27;7.80;;;;;;;20.71;100.00;101502.16;5096342;28;20024;-72
2022/06/16 00:40:17;;;;;;;10.88;7.45;;;;;;;20.79;100.00;101502.66;5095944;28;20028;-73
2022/06/16 00:43:03;;;;;;;10.98;7.68;;;;;;;20.66;100.00;101498.81;5096462;28;20106;-71
2022/06/16 00:45:50;;;;;;;9.95;7.38;;;;;;;20.51;100.00;101498.69;5096099;28;20105;-72
2022/06/16 00:49:00;;;;;;;11.73;6.80;;;;;;;20.31;100.00;101496.94;5096249;28;20173;-73
2022/06/16 00:51:52;;;;;;;10.45;7.88;;;;;;;20.72;100.00;101500.34;5096111;28;20024;-72
2022/06/16 00:54:48;;;;;;;12.05;7.25;;;;;;;20.74;100.00;101502.00;5095799;28;20372;-72
2022/06/16 00:57:40;;;;;;;11.18;7.80;;;;;;;20.82;100.00;101505.16;5095042;28;20024;-72
2022/06/16 01:00:44;;;;;;;10.80;7.88;;;;;;;20.67;100.00;101503.25;5095701;28;20120;-72
2022/06/16 01:06:34;;;;;;;10.65;7.10;;;;;;;20.35;100.00;101493.19;5096004;28;20119;-73
2022/06/16 01:09:27;;;;;;;14.48;7.72;;;;;;;20.57;100.00;101493.94;5095783;28;20433;-73
2022/06/16 01:15:49;;;;;;;9.90;7.38;;;;;;;20.62;100.00;101499.06;5095268;28;20510;-72
2022/06/16 01:18:51;;;;;;;14.65;7.97;;;;;;;20.39;100.00;101496.56;5095478;28;20115;-72
2022/06/16 01:21:48;;;;;;;10.35;7.75;;;;;;;20.10;100.00;101500.56;5095229;28;20036;-72
2022/06/16 01:24:43;;;;;;;9.82;8.43;;;;;;;20.13;100.00;101499.56;5095002;28;20024;-72
2022/06/16 01:27:57;;;;;;;9.52;7.97;;;;;;;19.82;100.00;101493.81;5095635;28;20436;-72
2022/06/16 01:30:45;;;;;;;10.13;8.23;;;;;;;19.98;100.00;101492.22;5095294;28;20038;-71
2022/06/16 01:33:45;;;;;;;11.25;8.70;;;;;;;19.78;100.00;101494.88;5095115;28;20095;-73
2022/06/16 01:36:38;;;;;;;9.55;8.35;;;;;;;19.55;100.00;101506.47;5095832;28;20035;-71
2022/06/16 01:39:27;;;;;;;12.13;8.82;;;;;;;19.75;100.00;101503.84;5095450;28;20084;-72
2022/06/16 01:42:42;;;;;;;10.55;8.43;;;;;;;19.83;100.00;101500.84;5094846;28;20028;-71
2022/06/16 01:45:57;;;;;;;10.27;8.45;;;;;;;20.10;100.00;101483.72;5087512;28;20036;-72
2022/06/16 01:48:48;;;;;;;15.30;9.05;;;;;;;20.12;100.00;101484.50;5072386;28;20144;-73
2022/06/16 01:51:43;;;;;;;11.38;8.75;;;;;;;19.91;100.00;101486.28;5094645;28;20193;-73
2022/06/16 01:54:43;;;;;;;14.73;9.43;;;;;;;19.64;100.00;101490.13;5095526;28;20052;-73
2022/06/16 01:57:45;;;;;;;11.70;9.43;;;;;;;19.61;100.00;101490.25;5094741;28;20082;-72
2022/06/16 02:00:32;;;;;;;12.13;9.52;;;;;;;19.60;100.00;101490.34;5094478;28;20024;-73
2022/06/16 02:03:23;;;;;;;12.25;8.98;;;;;;;19.86;100.00;101482.97;5094047;28;20024;-72
2022/06/16 02:06:16;;;;;;;14.65;9.25;;;;;;;19.84;100.00;101498.13;5094652;28;20078;-73
2022/06/16 02:09:09;;;;;;;11.95;8.77;;;;;;;19.94;100.00;101490.63;5094962;28;20101;-73
2022/06/16 02:11:59;;;;;;;10.82;9.38;;;;;;;19.69;100.00;101489.94;5093160;28;20024;-73
2022/06/16 02:14:47;;;;;;;11.55;8.90;;;;;;;19.68;100.00;101493.53;5095152;28;20039;-73
2022/06/16 02:17:32;;;;;;;10.60;8.65;;;;;;;19.87;100.00;101497.13;5094467;28;20070;-73
2022/06/16 02:20:20;;;;;;;12.68;9.23;;;;;;;20.16;100.00;101489.63;5093770;28;20349;-72
2022/06/16 02:23:06;;;;;;;14.25;8.40;;;;;;;19.82;100.00;101502.66;5094291;28;20024;-72
2022/06/16 02:25:55;;;;;;;15.48;9.35;;;;;;;20.16;100.00;101505.59;5094362;28;20432;-72
2022/06/16 02:28:47;;;;;;;12.43;8.80;;;;;;;20.27;100.00;101500.66;5094228;28;20127;-72
2022/06/16 02:31:46;;;;;;;13.40;9.38;;;;;;;20.13;100.00;101503.06;5093823;28;20116;-72
2022/06/16 02:34:40;;;;;;;12.68;8.65;;;;;;;20.32;100.00;101500.44;5093660;28;20388;-73
2022/06/16 02:37:50;;;;;;;12.90;9.13;;;;;;;20.44;100.00;101499.88;5094149;28;20028;-73
2022/06/16 02:41:01;;;;;;;10.90;8.18;;;;;;;19.79;100.00;101501.91;5094267;28;20034;-71
2022/06/16 02:44:18;;;;;;;18.80;9.00;;;;;;;19.87;100.00;101502.44;5094553;28;20062;-72
2022/06/16 02:47:22;;;;;;;10.43;8.27;;;;;;;19.67;100.00;101502.44;5094793;28;20349;-73
2022/06/16 02:50:11;;;;;;;13.07;8.75;;;;;;;20.26;100.00;101496.28;5095054;28;20035;-73
2022/06/16 02:54:08;;;;;;;12.07;9.20;;;;;;;20.09;100.00;101498.81;5093353;28;20436;-73
2022/06/16 02:56:38;;;;;;;13.25;9.18;;;;;;;20.23;100.00;101499.06;5091882;28;20039;-73
2022/06/16 02:59:31;;;;;;;13.95;8.95;;;;;;;20.49;100.00;101495.25;5093795;28;20024;-72
2022/06/16 03:02:23;;;;;;;14.02;8.82;;;;;;;20.50;100.00;101496.97;5094291;28;20024;-71
2022/06/16 03:05:11;;;;;;;10.07;8.10;;;;;;;20.33;100.00;101499.53;5098144;28;20043;-72
2022/06/16 03:07:57;;;;;;;11.50;7.28;;;;;;;20.17;100.00;101499.34;5098803;28;20365;-72
2022/06/16 03:10:52;;;;;;;9.15;6.65;;;;;;;19.89;100.00;101514.75;5097832;28;20115;-71
2022/06/16 03:13:37;;;;;;;12.43;6.97;;;;;;;20.06;100.00;101506.91;5097986;28;20451;-72
2022/06/16 03:16:23;;;;;;;12.13;6.68;;;;;;;19.96;100.00;101510.00;5097707;28;20031;-72
2022/06/16 03:19:09;;;;;;;10.38;6.78;;;;;;;19.83;100.00;101515.03;5097783;28;20410;-73
2022/06/16 03:21:56;;;;;;;10.98;6.32;;;;;;;20.05;100.00;101506.97;5097020;28;20038;-74
2022/06/16 03:24:41;;;;;;;11.57;6.72;;;;;;;20.38;100.00;101503.72;5098327;28;20170;-74
2022/06/16 03:27:27;;;;;;;9.32;6.70;;;;;;;20.35;100.00;101503.84;5097773;28;20024;-73
2022/06/16 03:30:13;;;;;;;18.85;6.82;;;;;;;20.38;100.00;101508.16;5097622;28;20016;-71
2022/06/16 03:32:59;;;;;;;8.85;6.30;;;;;;;20.40;100.00;101511.59;5097711;28;20032;-73
2022/06/16 03:35:45;;;;;;;8.48;6.45;;;;;;;20.31;100.00;101506.72;5097292;28;20418;-73
2022/06/16 03:38:36;;;;;;;7.28;6.30;;;;;;;20.42;100.00;101515.97;5097800;28;20521;-74
2022/06/16 03:41:22;;;;;;;10.73;6.32;;;;;;;20.33;100.00;101520.81;5097233;28;20032;-73
2022/06/16 03:44:08;;;;;;;10.50;6.18;;;;;;;19.76;100.00;101524.19;5098359;28;20035;-73
2022/06/16 03:46:54;;;;;;;9.32;6.22;;;;;;;20.02;100.00;101515.97;5096587;28;20047;-73
2022/06/16 03:49:39;;;;;;;9.65;6.10;;;;;;;20.33;100.00;101516.34;5097421;28;20024;-73
2022/06/16 03:52:25;;;;;;;7.97;5.93;;;;;;;20.24;100.00;101514.09;5097013;28;20035;-73
2022/06/16 03:55:11;;;;;;;10.20;6.43;;;;;;;20.10;100.00;101516.53;5097792;28;20177;-73
2022/06/16 03:57:58;;;;;;;13.77;6.75;;;;;;;19.75;100.00;101519.78;5097223;28;20074;-74
2022/06/16 04:00:44;;;;;;;10.15;6.78;;;;;;;19.55;100.00;101522.44;5096912;28;20039;-73
2022/06/16 04:06:35;;;;;;;8.88;6.32;;;;;;;20.08;100.00;101515.69;5096831;28;20020;-72
2022/06/16 04:09:21;;;;;;;12.00;6.70;;;;;;;20.17;100.00;101520.63;5097003;28;20032;-73
2022/06/16 04:12:07;;;;;;;12.45;7.10;;;;;;;20.28;100.00;101520.16;5096240;28;20471;-73
2022/06/16 04:14:54;;;;;;;10.75;6.97;;;;;;;20.07;100.00;101521.06;5096518;28;20131;-73
2022/06/16 04:17:40;;;;;;;12.30;7.50;;;;;;;20.07;100.00;101511.28;5095964;28;20024;-72
2022/06/16 04:20:26;;;;;;;9.80;7.30;;;;;;;20.76;100.00;101515.25;5097274;28;20055;-73
2022/06/16 04:23:12;;;;;;;11.60;8.02;;;;;;;20.60;100.00;101514.22;5095884;28;20045;-73
2022/06/16 04:25:58;;;;;;;11.55;7.63;;;;;;;20.44;100.00;101518.53;5097114;28;20111;-73
2022/06/16 04:28:44;;;;;;;12.77;8.30;;;;;;;20.53;100.00;101518.97;5096453;28;20349;-73
2022/06/16 04:31:31;;;;;;;11.38;8.50;;;;;;;20.99;100.00;101520.41;5096316;28;20028;-74
2022/06/16 04:34:17;;;;;;;12.93;9.30;;;;;;;20.26;100.00;101514.03;5096398;28;20032;-73
2022/06/16 04:37:03;;;;;;;12.60;8.77;;;;;;;20.90;100.00;101520.81;5096380;28;20031;-73
2022/06/16 04:39:49;;;;;;;10.07;8.23;;;;;;;21.19;100.00;101517.66;5096496;28;20024;-72
2022/06/16 04:42:35;;;;;;;13.35;8.13;;;;;;;21.14;100.00;101528.50;5095816;28;20028;-72
2022/06/16 04:45:22;;;;;;;12.25;8.95;;;;;;;21.02;100.00;101528.25;5096857;28;20032;-72
2022/06/16 04:48:08;;;;;;;12.88;8.73;;;;;;;20.74;100.00;101525.97;5095981;28;20024;-72
2022/06/16 04:50:54;;;;;;;10.75;7.82;;;;;;;21.09;100.00;101527.88;5096676;28;20020;-73
2022/06/16 04:53:40;;;;;;;10.95;7.13;;;;;;;21.20;100.00;101528.25;5095756;28;20027;-73
2022/06/16 04:56:25;;;;;;;11.48;7.00;;;;;;;21.16;100.00;101518.66;5095925;28;20028;-73
2022/06/16 04:59:13;;;;;;;9.95;7.25;;;;;;;21.18;100.00;101519.44;5095820;28;20493;-73
2022/06/16 05:01:59;;;;;;;9.68;7.43;;;;;;;21.26;100.00;101527.09;5095702;28;20039;-73
2022/06/16 05:04:45;;;;;;;10.68;6.80;;;;;;;21.48;100.00;101533.06;5094956;28;20023;-73
2022/06/16 05:07:30;;;;;;;13.13;7.40;;;;;;;21.36;100.00;101523.00;5096221;28;20028;-73
2022/06/16 05:10:17;;;;;;;12.23;7.07;;;;;;;21.42;100.00;101518.25;5095642;28;20016;-72
2022/06/16 05:13:03;;;;;;;11.30;8.20;;;;;;;21.72;100.00;101523.88;5095311;28;20036;-72
2022/06/16 05:15:53;;;;;;;10.20;6.90;;;;;;;21.26;100.00;101513.75;5096131;28;20027;-73
2022/06/16 05:18:39;;;;;;;11.80;7.38;;;;;;;21.68;100.00;101519.59;5095242;28;20472;-73
2022/06/16 05:21:25;;;;;;;13.07;7.38;;;;;;;21.59;100.00;101515.63;5094453;28;20079;-72
2022/06/16 05:24:10;;;;;;;16.15;8.10;;;;;;;22.06;100.00;101513.22;5095287;28;20101;-73
2022/06/16 05:26:56;;;;;;;12.23;7.60;;;;;;;21.95;100.00;101499.56;5095123;28;20034;-73
2022/06/16 05:29:43;;;;;;;14.80;8.38;;;;;;;22.31;100.00;101511.84;5095023;28;20032;-72
2022/06/16 05:32:28;;;;;;;14.07;7.70;;;;;;;22.61;100.00;101506.69;5095774;28;20028;-72
2022/06/16 05:35:14;;;;;;;14.38;6.90;;;;;;;22.47;100.00;101510.09;5095308;28;20028;-73
2022/06/16 05:38:00;;;;;;;8.57;6.47;;;;;;;22.62;100.00;101505.72;5095639;28;20039;-73
2022/06/16 05:40:45;;;;;;;8.95;6.90;;;;;;;22.78;100.00;101520.84;5094938;28;20444;-73
2022/06/16 05:43:31;;;;;;;7.53;6.00;;;;;;;23.19;100.00;101511.38;5095038;28;20412;-73
2022/06/16 05:46:21;;;;;;;15.85;6.95;;;;;;;23.23;100.00;101517.47;5094566;28;20364;-72
2022/06/16 05:49:06;;;;;;;7.47;6.35;;;;;;;23.06;100.00;101521.03;5094699;28;20070;-72
2022/06/16 05:51:52;;;;;;;16.40;6.30;;;;;;;23.02;100.00;101511.47;5095355;28;20464;-72
2022/06/16 05:54:38;;;;;;;9.30;6.50;;;;;;;23.17;100.00;101512.41;5094807;28;20107;-72
2022/06/16 05:57:24;;;;;;;11.35;6.93;;;;;;;23.00;100.00;101516.06;5095483;28;20024;-72
2022/06/16 06:00:11;;;;;;;12.60;7.18;;;;;;;23.08;100.00;101519.13;5094576;28;20035;-73
2022/06/16 06:02:58;;;;;;;11.20;6.97;;;;;;;23.28;100.00;101521.56;5095252;28;20111;-73
2022/06/16 06:05:44;;;;;;;8.85;6.78;;;;;;;23.25;100.00;101523.56;5094723;28;20066;-72
2022/06/16 06:17:47;;;;;;;13.15;7.20;;;;;;;23.72;100.00;101516.34;5094640;28;20016;-73
2022/06/16 06:20:32;;;;;;;11.70;7.03;;;;;;;24.13;100.00;101521.91;5093579;28;20043;-73
2022/06/16 06:23:18;;;;;;;12.73;6.70;;;;;;;23.71;100.00;101527.97;5093295;28;20023;-73
2022/06/16 06:26:04;;;;;;;18.63;7.80;;;;;;;23.56;100.00;101526.22;5094919;28;20028;-73
2022/06/16 06:28:50;;;;;;;16.42;9.52;;;;;;;23.71;100.00;101530.66;5094547;28;20036;-73
2022/06/16 06:31:35;;;;;;;13.65;9.55;;;;;;;23.88;100.00;101527.88;5095213;28;20016;-73
2022/06/16 06:34:22;;;;;;;9.52;6.82;;;;;;;23.92;100.00;101533.91;5094215;28;20039;-73
2022/06/16 06:37:10;;;;;;;16.10;6.53;;;;;;;23.81;100.00;101523.81;5097225;28;20043;-74
2022/06/16 06:39:56;;;;;;;10.02;6.28;;;;;;;23.97;100.00;101529.13;5098738;28;20097;-72
2022/06/16 06:42:42;;;;;;;10.57;6.55;;;;;;;24.22;100.00;101527.56;5098498;28;20035;-72
2022/06/16 06:45:29;;;;;;;9.27;6.40;;;;;;;24.14;100.00;101527.19;5098277;28;20033;-73
2022/06/16 06:48:15;;;;;;;8.52;6.28;;;;;;;24.04;100.00;101536.72;5098059;28;20027;-72
2022/06/16 06:51:00;;;;;;;10.32;6.40;;;;;;;24.30;100.00;101527.97;5098317;28;20111;-73
2022/06/16 06:53:46;;;;;;;12.70;6.85;;;;;;;24.46;100.00;101531.44;5099782;28;20035;-72
2022/06/16 06:56:33;;;;;;;9.30;6.90;;;;;;;24.44;100.00;101524.44;5097824;28;20089;-74
2022/06/16 06:59:19;;;;;;;10.52;6.28;;;;;;;24.94;100.00;101538.22;5098181;28;20031;-72
2022/06/16 07:02:07;;;;;;;9.15;5.97;;;;;;;24.93;100.00;101540.06;5098119;28;20425;-73
2022/06/16 07:04:53;;;;;;;9.90;6.60;;;;;;;25.11;100.00;101538.88;5098301;28;20024;-73
2022/06/16 07:07:39;;;;;;;10.43;6.65;;;;;;;25.27;100.00;101541.44;5099582;28;20039;-73
2022/06/16 07:10:26;;;;;;;14.48;6.57;;;;;;;25.67;100.00;101536.03;5098243;28;20035;-73
2022/06/16 07:13:11;;;;;;;8.07;6.50;;;;;;;25.52;100.00;101539.72;5098876;28;20023;-73
2022/06/16 07:15:57;;;;;;;11.25;6.35;;;;;;;25.53;100.00;101537.94;5098834;28;20460;-74
2022/06/16 07:18:45;;;;;;;8.88;6.63;;;;;;;25.41;100.00;101539.59;5104808;28;20076;-73
2022/06/16 07:21:30;;;;;;;9.73;6.10;;;;;;;25.53;100.00;101537.94;5105677;28;20093;-73
2022/06/16 07:24:16;;;;;;;8.88;5.60;;;;;;;25.31;100.00;101540.31;5106832;28;20043;-73
2022/06/16 07:27:03;;;;;;;13.35;5.78;;;;;;;25.46;100.00;101536.59;5106466;28;20123;-73
2022/06/16 07:29:49;;;;;;;10.00;5.93;;;;;;;25.98;100.00;101537.53;5106772;28;20028;-73
2022/06/16 07:32:35;;;;;;;7.20;5.57;;;;;;;25.96;100.00;101540.34;5107217;28;20028;-72
2022/06/16 07:35:23;;;;;;;7.90;5.50;;;;;;;26.13;100.00;101536.50;5105999;28;20089;-74
2022/06/16 07:38:12;;;;;;;12.60;6.15;;;;;;;26.41;100.00;101534.47;5109167;28;20169;-73
2022/06/16 07:44:03;;;;;;;6.93;6.20;;;;;;;26.28;100.00;101535.44;5109502;28;20035;-73
2022/06/16 07:46:49;;;;;;;7.45;6.10;;;;;;;27.11;100.00;101538.38;5110194;28;20035;-74
2022/06/16 07:49:35;;;;;;;12.15;5.70;;;;;;;26.87;100.00;101541.03;5106608;28;20062;-72
2022/06/16 07:52:21;;;;;;;10.80;5.40;;;;;;;27.19;100.00;101544.06;5100220;28;20030;-73
2022/06/16 07:55:08;;;;;;;8.38;4.97;;;;;;;27.09;100.00;101537.66;5099873;28;20027;-74
2022/06/16 07:57:54;;;;;;;9.38;4.75;;;;;;;26.76;100.00;101538.25;5097747;28;20039;-73
2022/06/16 08:00:40;;;;;;;8.32;4.68;;;;;;;26.66;100.00;101537.19;5098394;28;20024;-73
2022/06/16 08:03:29;;;;;;;8.95;4.60;;;;;;;26.61;100.00;101546.56;5098736;28;20024;-73
2022/06/16 08:06:23;;;;;;;8.40;4.85;;;;;;;27.12;100.00;101540.09;5098480;28;20161;-74
2022/06/16 08:09:11;;;;;;;12.60;5.10;;;;;;;27.15;99.24;101542.56;5097834;28;20028;-73
2022/06/16 08:12:03;;;;;;;7.47;5.00;;;;;;;27.57;98.17;101547.53;5096307;28;20020;-74
2022/06/16 08:14:49;;;;;;;20.48;10.07;;;;;;;28.02;94.17;101545.88;5096942;28;20084;-73
2022/06/16 08:17:41;;;;;;;11.45;5.80;;;;;;;27.94;93.01;101543.78;5097078;28;20364;-73
2022/06/16 08:20:27;;;;;;;11.30;6.20;;;;;;;27.41;94.25;101549.63;5096306;28;20044;-72
2022/06/16 08:23:13;;;;;;;8.70;4.70;;;;;;;27.82;92.09;101550.09;5096357;28;20020;-73
2022/06/16 08:25:59;;;;;;;10.20;4.53;;;;;;;28.16;88.78;101535.75;5097006;28;20027;-73
2022/06/16 08:28:45;;;;;;;6.32;4.15;;;;;;;27.74;81.57;101548.94;5096350;28;20085;-72
2022/06/16 08:31:31;;;;;;;6.80;4.78;;;;;;;28.89;65.23;101539.78;5096835;28;20020;-72
2022/06/16 08:34:17;;;;;;;10.35;6.55;;;;;;;28.63;61.03;101532.91;5097935;28;20102;-72
2022/06/16 08:37:03;;;;;;;4.30;3.50;;;;;;;29.00;62.18;101542.50;5096854;28;20106;-72
2022/06/16 08:39:49;;;;;;;6.13;3.25;;;;;;;29.48;65.11;101543.88;5096848;28;20106;-73
2022/06/16 08:43:01;;;;;;;5.45;2.72;;;;;;;29.59;57.93;101540.31;5097418;28;20050;-74
2022/06/16 08:46:04;;;;;;;4.82;2.85;;;;;;;29.39;60.64;101541.09;5096457;28;20020;-73
2022/06/16 08:49:57;;;;;;;3.65;2.75;;;;;;;29.79;57.83;101529.56;5096774;28;20024;-73
2022/06/16 08:53:11;;;;;;;3.42;2.53;;;;;;;29.51;55.40;101532.81;5040457;28;20039;-74
2022/06/16 08:56:23;;;;;;;13.02;3.28;;;;;;;29.76;54.64;101535.22;5096749;28;20024;-74
2022/06/16 08:59:39;;;;;;;5.25;2.72;;;;;;;29.54;54.55;101529.84;5098462;28;20456;-75
2022/06/16 09:03:08;;;;;;;5.40;2.80;;;;;;;29.50;59.43;101527.56;5097794;28;20035;-74
2022/06/16 09:06:18;;;;;;;4.15;2.85;;;;;;;28.63;59.56;101529.34;5022525;28;20017;-74
2022/06/16 09:12:36;;;;;;;7.35;2.88;;;;;;;29.29;55.70;101526.63;5104424;28;20039;-75
2022/06/16 09:15:38;;;;;;;5.95;2.83;;;;;;;29.07;56.60;101535.63;5101073;28;20028;-74
2022/06/16 09:19:02;;;;;;;4.72;3.00;;;;;;;28.88;59.16;101521.00;5096750;28;20356;-75
2022/06/16 09:22:37;;;;;;;6.30;2.83;;;;;;;29.62;57.46;101526.56;5057958;28;20044;-78
2022/06/16 09:25:41;;;;;;;4.35;2.72;;;;;;;29.24;57.78;101521.59;5109403;28;20031;-78
2022/06/16 09:28:58;;;;;;;4.40;2.80;;;;;;;29.26;55.55;101519.66;5106616;28;20070;-77
2022/06/16 09:31:47;;;;;;;3.45;2.78;;;;;;;28.93;58.26;101521.50;5110821;28;20052;-77
2022/06/16 09:34:36;;;;;;;7.88;2.85;;;;;;;28.90;61.10;101514.53;5108479;28;20476;-77
2022/06/16 09:37:32;;;;;;;7.65;3.20;;;;;;;28.73;57.74;101509.63;5104497;28;20032;-77
2022/06/16 09:40:35;;;;;;;12.27;10.50;;;;;;;28.59;65.09;101512.56;5104715;28;20023;-76
2022/06/16 09:43:28;;;;;;;3.72;2.60;;;;;;;28.89;61.66;101518.19;5103434;28;20024;-78
2022/06/16 09:46:28;;;;;;;4.05;2.65;;;;;;;29.27;61.09;101515.97;5103933;28;20028;-77
2022/06/16 09:49:24;;;;;;;6.97;2.70;;;;;;;29.27;54.53;101512.38;5102438;28;20023;-81
2022/06/16 09:52:17;;;;;;;5.30;2.70;;;;;;;28.93;58.88;101508.03;5097370;28;20360;-79
2022/06/16 09:55:19;;;;;;;5.05;2.80;;;;;;;29.73;57.11;101500.34;5100572;28;20039;-80
2022/06/16 09:58:28;;;;;;;5.05;3.08;;;;;;;29.45;59.01;101495.50;5115246;28;20004;-79
2022/06/16 10:01:18;;;;;;;3.58;2.83;;;;;;;29.02;57.94;101493.81;5113498;28;20059;-78
2022/06/16 10:04:07;;;;;;;5.55;2.80;;;;;;;29.55;55.23;101498.31;5114011;28;20468;-80
2022/06/16 10:07:04;;;;;;;12.50;3.38;;;;;;;29.38;56.15;101499.72;5101997;28;20023;-78
2022/06/16 10:10:06;;;;;;;3.90;2.97;;;;;;;29.13;56.75;101501.88;5100759;28;20062;-78
2022/06/16 10:13:06;;;;;;;2.95;2.70;;;;;;;29.33;53.98;101498.41;5106459;28;20111;-80
2022/06/16 10:16:01;;;;;;;5.70;2.90;;;;;;;29.18;56.07;101500.53;5114803;28;20028;-79
2022/06/16 10:18:50;;;;;;;4.30;2.58;;;;;;;28.80;51.31;101502.75;5115680;28;20030;-79
2022/06/16 10:21:36;;;;;;;10.75;6.82;;;;;;;29.48;50.34;101495.25;5115876;28;20461;-80
2022/06/16 10:24:27;;;;;;;7.47;6.22;;;;;;;29.38;50.46;101488.06;5110891;28;20048;-80
2022/06/16 10:27:16;;;;;;;7.22;3.85;;;;;;;29.63;52.17;101485.03;5110427;28;20062;-79
2022/06/16 10:30:06;;;;;;;3.28;2.58;;;;;;;29.57;51.42;101490.94;5107660;28;20088;-80
2022/06/16 10:33:05;;;;;;;4.15;2.92;;;;;;;29.60;50.88;101482.59;5107092;28;20040;-78
2022/06/16 10:36:16;;;;;;;4.75;2.78;;;;;;;29.10;53.88;101480.53;5098816;28;20056;-80
2022/06/16 10:39:26;;;;;;;4.80;2.80;;;;;;;28.73;53.13;101474.53;5098232;28;20028;-78
2022/06/16 10:42:18;;;;;;;5.80;3.00;;;;;;;29.30;53.44;101472.50;5096629;28;20024;-78
2022/06/16 10:45:05;;;;;;;4.13;3.00;;;;;;;29.76;52.52;101466.78;5095701;28;20056;-79
2022/06/16 10:47:56;;;;;;;4.60;2.80;;;;;;;29.76;56.43;101469.50;5096790;28;20039;-80
2022/06/16 10:50:49;;;;;;;3.58;2.80;;;;;;;29.54;57.07;101469.59;5096104;28;20406;-75
2022/06/16 10:53:46;;;;;;;7.35;3.13;;;;;;;30.08;59.34;101468.47;5095652;28;20032;-81
2022/06/16 10:56:39;;;;;;;3.90;2.80;;;;;;;29.52;55.16;101466.13;5095123;28;20048;-72
2022/06/16 10:59:28;;;;;;;8.18;4.57;;;;;;;29.89;52.99;101462.91;5095064;28;20024;-71
2022/06/16 11:02:23;;;;;;;7.70;4.30;;;;;;;29.80;53.14;101460.16;5094047;28;20016;-72
2022/06/16 11:05:13;;;;;;;6.07;4.75;;;;;;;30.31;52.00;101466.47;5095479;28;20028;-72
2022/06/16 11:08:13;;;;;;;4.85;2.65;;;;;;;30.26;52.76;101456.06;5094288;28;20028;-79
2022/06/16 11:11:01;;;;;;;4.65;2.70;;;;;;;30.40;50.81;101452.13;5095394;28;20441;-79
2022/06/16 11:13:54;;;;;;;3.45;2.63;;;;;;;30.38;49.30;101459.53;5095828;28;20528;-72
2022/06/16 11:16:49;;;;;;;4.90;2.85;;;;;;;30.44;49.62;101459.84;5095293;28;20042;-77
2022/06/16 11:19:58;;;;;;;4.28;2.65;;;;;;;30.12;49.97;101461.78;5094322;28;20140;-79
2022/06/16 11:22:47;;;;;;;4.38;2.50;;;;;;;30.74;48.96;101454.44;5092712;28;20072;-78
2022/06/16 11:25:37;;;;;;;5.60;2.55;;;;;;;30.17;49.50;101456.00;5099745;28;20448;-78
2022/06/16 11:28:26;;;;;;;5.55;3.00;;;;;;;29.77;51.54;101455.88;5098921;28;20067;-79
2022/06/16 11:31:19;;;;;;;4.60;2.78;;;;;;;30.10;50.02;101444.84;5100527;28;20452;-81
2022/06/16 11:34:23;;;;;;;4.20;2.55;;;;;;;29.88;49.44;101439.59;5101468;28;20024;-78
2022/06/16 11:37:38;;;;;;;7.38;4.95;;;;;;;28.91;55.58;101439.81;5099892;28;20024;-79
2022/06/16 11:40:43;;;;;;;7.07;6.38;;;;;;;28.36;58.29;101440.69;5096968;28;20448;-73
2022/06/16 11:43:43;;;;;;;7.55;4.80;;;;;;;29.08;54.68;101445.56;5097242;28;20034;-73
2022/06/16 11:46:38;;;;;;;5.80;2.78;;;;;;;29.15;49.27;101440.53;5098103;28;20020;-75
2022/06/16 11:49:30;;;;;;;3.97;3.38;;;;;;;29.46;49.34;101437.84;5097116;28;20024;-74
2022/06/16 11:52:15;;;;;;;4.15;2.60;;;;;;;29.41;48.79;101436.50;5097371;28;20020;-73
2022/06/16 11:55:09;;;;;;;5.32;3.22;;;;;;;29.92;48.38;101432.06;5097113;28;20063;-74
2022/06/16 11:58:13;;;;;;;5.53;3.55;;;;;;;30.22;48.80;101432.13;5097551;28;20024;-73
2022/06/16 12:01:05;;;;;;;6.60;3.63;;;;;;;29.67;49.37;101433.34;5097132;28;20460;-73
2022/06/16 12:04:10;;;;;;;3.40;2.97;;;;;;;29.12;51.15;101436.25;5097187;28;20032;-74
2022/06/16 12:07:50;;;;;;;4.07;2.65;;;;;;;29.45;50.08;101425.28;5097010;28;20024;-72
2022/06/16 12:10:47;;;;;;;4.80;2.70;;;;;;;29.82;48.32;101429.28;5035487;28;20385;-73
2022/06/16 12:13:59;;;;;;;5.90;3.17;;;;;;;29.70;48.44;101430.34;5096758;28;20051;-74
2022/06/16 12:17:06;;;;;;;3.88;2.92;;;;;;;29.94;50.02;101420.13;5096910;28;20103;-76
2022/06/16 12:20:03;;;;;;;6.07;2.55;;;;;;;29.54;49.91;101420.97;5096643;28;20062;-73
2022/06/16 12:23:06;;;;;;;6.65;3.50;;;;;;;29.32;50.96;101415.66;5097265;28;20035;-76
2022/06/16 12:26:28;;;;;;;2.80;2.50;;;;;;;29.07;50.10;101414.19;5097195;28;20039;-74
2022/06/16 12:29:49;;;;;;;7.93;5.32;;;;;;;28.65;52.00;101406.03;5073332;28;20101;-77
2022/06/16 12:32:58;;;;;;;7.40;3.65;;;;;;;28.83;51.80;101405.38;5096461;28;20020;-75
2022/06/16 12:36:16;;;;;;;6.82;3.55;;;;;;;28.90;52.97;101403.03;5096016;28;20452;-74
2022/06/16 12:39:14;;;;;;;4.82;3.05;;;;;;;28.89;53.30;101399.47;5095705;28;20360;-75
2022/06/16 12:42:05;;;;;;;4.55;2.42;;;;;;;28.48;50.81;101403.84;5096670;28;20298;-73
2022/06/16 12:45:07;;;;;;;6.60;5.05;;;;;;;28.14;58.37;101392.19;5096217;28;20031;-74
2022/06/16 12:48:08;;;;;;;7.45;4.97;;;;;;;28.71;52.28;101395.59;5096573;28;20460;-78
2022/06/16 12:51:10;;;;;;;4.90;2.63;;;;;;;29.17;49.03;101389.97;5098500;28;20024;-78
2022/06/16 12:54:08;;;;;;;3.28;2.58;;;;;;;29.15;47.93;101383.84;5099219;28;20039;-79
2022/06/16 12:57:11;;;;;;;4.00;3.17;;;;;;;29.58;48.58;101377.38;5096203;28;20390;-78
2022/06/16 13:00:06;;;;;;;6.60;4.80;;;;;;;30.27;47.82;101381.19;5095752;28;20020;-74
2022/06/16 13:03:16;;;;;;;3.28;2.40;;;;;;;29.83;46.48;101373.41;5095688;28;20039;-73
2022/06/16 13:06:02;;;;;;;7.68;3.25;;;;;;;29.84;48.08;101372.41;5095712;28;20032;-73
2022/06/16 13:08:51;;;;;;;3.33;2.33;;;;;;;30.20;45.48;101367.38;5096078;28;20028;-73
2022/06/16 13:11:49;;;;;;;6.28;2.90;;;;;;;30.76;44.86;101365.88;5096250;28;20039;-72
2022/06/16 13:14:39;;;;;;;6.03;3.80;;;;;;;29.68;43.97;101363.94;5095732;28;20049;-72
2022/06/16 13:17:29;;;;;;;2.67;2.38;;;;;;;29.93;44.87;101355.44;5096443;28;20043;-72
2022/06/16 13:20:18;;;;;;;7.65;2.75;;;;;;;30.65;45.00;101363.25;5095935;28;20055;-74
2022/06/16 13:23:30;;;;;;;4.25;2.40;;;;;;;29.46;45.23;101348.72;5095912;28;20055;-74
2022/06/16 13:26:16;;;;;;;4.72;2.78;;;;;;;29.88;43.88;101350.41;5094279;28;20046;-75
2022/06/16 13:29:49;;;;;;;4.07;2.35;;;;;;;29.48;44.13;101352.13;5095506;28;20042;-75
2022/06/16 13:32:39;;;;;;;14.38;12.23;;;;;;;29.93;42.96;101347.31;5057255;28;20047;-74
2022/06/16 13:35:31;;;;;;;29.65;23.88;;;;;;;30.57;44.40;101354.09;5095420;28;20024;-76
2022/06/16 13:38:17;;;;;;;6.72;2.92;;;;;;;30.69;41.86;101345.75;5095030;28;20055;-76
2022/06/16 13:41:36;;;;;;;5.20;2.58;;;;;;;29.89;42.51;101341.31;5096433;28;20103;-76